createdAt,value
2022-09-18T00:01:50.576Z,9.44
2022-09-18T00:06:53.301Z,9.38
2022-09-18T00:11:56.570Z,9.35
2022-09-18T00:16:59.592Z,9.38
2022-09-18T00:22:02.343Z,9.42
2022-09-18T00:27:05.272Z,9.44
2022-09-18T00:32:07.988Z,9.43
2022-09-18T00:37:11.309Z,9.45
2022-09-18T00:42:14.122Z,9.43
2022-09-18T00:47:29.785Z,9.41
2022-09-18T00:52:58.120Z,9.42
2022-09-18T00:58:03.275Z,9.41
2022-09-18T01:03:06.225Z,9.43
2022-09-18T01:08:23.561Z,9.45
2022-09-18T01:13:55.430Z,9.44
2022-09-18T01:19:39.392Z,9.49
2022-09-18T01:24:50.815Z,9.53
2022-09-18T01:30:02.302Z,9.57
2022-09-18T01:35:36.835Z,9.64
2022-09-18T01:40:46.608Z,9.67
2022-09-18T01:45:55.740Z,9.74
2022-09-18T01:51:17.205Z,9.79
2022-09-18T01:56:25.946Z,9.85
2022-09-18T02:01:31.354Z,9.89
2022-09-18T02:06:45.165Z,9.93
2022-09-18T02:11:54.004Z,10.02
2022-09-18T02:17:06.151Z,10.08
2022-09-18T02:22:12.444Z,10.16
2022-09-18T02:27:16.459Z,10.20
2022-09-18T02:32:19.310Z,10.22
2022-09-18T02:37:50.137Z,10.25
2022-09-18T02:43:14.797Z,10.29
2022-09-18T02:48:25.609Z,10.33
2022-09-18T02:53:30.806Z,10.39
2022-09-18T02:58:38.134Z,10.43
2022-09-18T03:03:41.901Z,10.38
2022-09-18T03:08:44.646Z,10.35
2022-09-18T03:13:47.543Z,10.37
2022-09-18T03:18:50.369Z,10.43
2022-09-18T03:23:53.370Z,10.43
2022-09-18T03:28:56.118Z,10.48
2022-09-18T03:33:58.864Z,10.52
2022-09-18T03:39:01.744Z,10.52
2022-09-18T03:44:05.046Z,10.55
2022-09-18T03:49:07.817Z,10.56
2022-09-18T03:54:10.489Z,10.54
2022-09-18T03:59:13.445Z,10.46
2022-09-18T04:04:16.197Z,10.42
2022-09-18T04:09:18.940Z,10.44
2022-09-18T04:14:25.611Z,10.41
2022-09-18T04:19:32.217Z,10.38
2022-09-18T04:24:36.378Z,10.37
2022-09-18T04:29:39.185Z,10.35
2022-09-18T04:34:43.422Z,10.37
2022-09-18T04:39:47.277Z,10.38
2022-09-18T04:44:50.015Z,10.39
2022-09-18T04:49:53.987Z,10.44
2022-09-18T04:54:57.093Z,10.50
2022-09-18T04:59:59.945Z,10.60
2022-09-18T05:05:02.640Z,10.66
2022-09-18T05:10:11.227Z,10.72
2022-09-18T05:15:14.606Z,10.73
2022-09-18T05:20:17.337Z,10.75
2022-09-18T05:25:23.392Z,10.83
2022-09-18T05:30:27.436Z,10.89
2022-09-18T05:35:32.360Z,10.79
2022-09-18T05:40:37.431Z,10.76
2022-09-18T05:45:40.556Z,10.81
2022-09-18T05:50:43.443Z,10.86
2022-09-18T05:55:46.644Z,10.91
2022-09-18T06:00:52.185Z,10.99
2022-09-18T06:05:55.220Z,11.10
2022-09-18T06:11:01.030Z,11.17
2022-09-18T06:16:04.086Z,11.24
2022-09-18T06:21:07.412Z,11.26
2022-09-18T06:26:14.722Z,11.23
2022-09-18T06:31:18.051Z,11.34
2022-09-18T06:36:20.919Z,11.41
2022-09-18T06:41:24.187Z,11.50
2022-09-18T06:46:27.063Z,11.51
2022-09-18T06:51:30.691Z,11.56
2022-09-18T06:56:33.989Z,11.66
2022-09-18T07:01:36.955Z,11.75
2022-09-18T07:06:39.664Z,11.86
2022-09-18T07:11:42.685Z,11.92
2022-09-18T07:16:45.411Z,11.93
2022-09-18T07:21:48.111Z,11.88
2022-09-18T07:26:50.853Z,11.83
2022-09-18T07:31:53.592Z,11.83
2022-09-18T07:36:56.310Z,11.84
2022-09-18T07:41:59.240Z,11.88
2022-09-18T07:47:03.175Z,11.94
2022-09-18T07:52:06.735Z,12.00
2022-09-18T07:57:10.128Z,12.06
2022-09-18T08:02:13.297Z,12.17
2022-09-18T08:07:16.222Z,12.35
2022-09-18T08:12:19.593Z,12.47
2022-09-18T08:17:23.949Z,12.59
2022-09-18T08:22:27.101Z,12.66
2022-09-18T08:27:29.850Z,12.64
2022-09-18T08:32:36.183Z,12.66
2022-09-18T08:37:48.673Z,12.69
2022-09-18T08:43:03.813Z,12.69
2022-09-18T08:48:14.602Z,12.76
2022-09-18T08:53:30.110Z,12.78
2022-09-18T08:58:45.574Z,12.68
2022-09-18T09:04:00.904Z,12.67
2022-09-18T09:09:30.857Z,12.69
2022-09-18T09:14:57.920Z,12.70
2022-09-18T09:20:21.666Z,12.75
2022-09-18T09:25:47.996Z,12.77
2022-09-18T09:30:55.340Z,12.81
2022-09-18T09:36:09.810Z,12.80
2022-09-18T09:41:25.464Z,12.65
2022-09-18T09:46:50.093Z,12.65
2022-09-18T09:52:03.697Z,12.69
2022-09-18T09:57:23.425Z,12.68
2022-09-18T10:02:30.432Z,12.71
2022-09-18T10:07:43.522Z,12.76
2022-09-18T10:13:00.569Z,12.82
2022-09-18T10:18:12.344Z,12.83
2022-09-18T10:23:41.416Z,12.88
2022-09-18T10:28:44.305Z,12.95
2022-09-18T10:33:53.182Z,13.01
2022-09-18T10:39:00.194Z,13.03
2022-09-18T10:44:24.450Z,13.03
2022-09-18T10:49:41.048Z,12.95
2022-09-18T10:55:00.814Z,12.88
2022-09-18T11:00:24.695Z,12.88
2022-09-18T11:05:33.804Z,12.91
2022-09-18T11:10:38.017Z,12.90
2022-09-18T11:15:53.570Z,12.85
2022-09-18T11:21:03.947Z,12.82
2022-09-18T11:26:26.793Z,12.84
2022-09-18T11:31:39.033Z,12.83
2022-09-18T11:36:49.495Z,12.80
2022-09-18T11:41:54.295Z,12.81
2022-09-18T11:47:29.843Z,12.84
2022-09-18T11:52:40.157Z,12.91
2022-09-18T11:57:48.462Z,13.04
2022-09-18T12:03:01.005Z,13.14
2022-09-18T12:08:50.492Z,13.21
2022-09-18T12:14:17.354Z,13.27
2022-09-18T12:19:49.521Z,13.35
2022-09-18T12:24:52.203Z,13.43
2022-09-18T12:30:08.965Z,13.53
2022-09-18T12:35:37.366Z,13.48
2022-09-18T12:41:16.486Z,13.39
2022-09-18T12:46:26.109Z,13.52
2022-09-18T12:51:35.415Z,13.75
2022-09-18T12:57:06.290Z,13.87
2022-09-18T13:02:36.350Z,13.89
2022-09-18T13:07:48.843Z,13.79
2022-09-18T13:13:09.579Z,13.81
2022-09-18T13:18:39.160Z,13.84
2022-09-18T13:23:42.859Z,13.83
2022-09-18T13:28:45.664Z,13.91
2022-09-18T13:34:06.911Z,14.10
2022-09-18T13:39:25.023Z,14.32
2022-09-18T13:44:34.974Z,14.47
2022-09-18T13:50:17.212Z,14.66
2022-09-18T13:55:20.259Z,14.74
2022-09-18T14:00:24.151Z,14.74
2022-09-18T14:05:31.023Z,14.73
2022-09-18T14:10:54.666Z,14.70
2022-09-18T14:16:13.754Z,14.63
2022-09-18T14:21:21.499Z,14.56
2022-09-18T14:26:38.052Z,14.58
2022-09-18T14:31:52.842Z,14.47
2022-09-18T14:37:27.206Z,14.37
2022-09-18T14:42:38.394Z,14.39
2022-09-18T14:47:44.097Z,14.26
2022-09-18T14:52:47.985Z,14.17
2022-09-18T14:57:55.671Z,14.15
2022-09-18T15:03:02.744Z,14.13
2022-09-18T15:08:14.361Z,14.10
2022-09-18T15:13:18.832Z,14.06
2022-09-18T15:18:25.752Z,13.99
2022-09-18T15:23:38.576Z,13.94
2022-09-18T15:28:44.613Z,13.84
2022-09-18T15:34:00.261Z,13.74
2022-09-18T15:39:06.459Z,13.61
2022-09-18T15:44:34.454Z,13.53
2022-09-18T15:49:37.384Z,13.40
2022-09-18T15:55:18.717Z,13.21
2022-09-18T16:00:29.987Z,13.04
2022-09-18T16:05:37.761Z,12.91
2022-09-18T16:10:44.713Z,12.82
2022-09-18T16:16:08.659Z,12.74
2022-09-18T16:21:11.564Z,12.64
2022-09-18T16:26:19.945Z,12.50
2022-09-18T16:31:26.435Z,12.37
2022-09-18T16:36:40.331Z,12.26
2022-09-18T16:41:43.860Z,12.21
2022-09-18T16:47:07.967Z,12.13
2022-09-18T16:52:12.082Z,12.00
2022-09-18T16:57:20.548Z,11.87
2022-09-18T17:02:26.083Z,11.63
2022-09-18T17:07:30.330Z,11.40
2022-09-18T17:12:33.090Z,11.28
2022-09-18T17:17:36.899Z,11.16
2022-09-18T17:22:39.958Z,11.02
2022-09-18T17:27:44.008Z,10.90
2022-09-18T17:32:48.624Z,10.82
2022-09-18T17:37:51.867Z,10.77
2022-09-18T17:42:55.041Z,10.76
2022-09-18T17:47:58.161Z,10.72
2022-09-18T17:53:01.334Z,10.66
2022-09-18T17:58:04.435Z,10.61
2022-09-18T18:03:07.825Z,10.57
2022-09-18T18:08:10.541Z,10.49
2022-09-18T18:13:18.191Z,10.43
2022-09-18T18:18:21.769Z,10.38
2022-09-18T18:23:25.004Z,10.35
2022-09-18T18:28:32.541Z,10.36
2022-09-18T18:33:37.579Z,10.36
2022-09-18T18:38:43.492Z,10.33
2022-09-18T18:43:46.717Z,10.28
2022-09-18T18:49:00.116Z,10.28
2022-09-18T18:54:05.461Z,10.30
2022-09-18T18:59:12.725Z,10.32
2022-09-18T19:04:21.567Z,10.29
2022-09-18T19:09:27.872Z,10.29
2022-09-18T19:14:33.882Z,10.26
2022-09-18T19:19:36.747Z,10.19
2022-09-18T19:24:40.099Z,10.17
2022-09-18T19:29:43.158Z,10.12
2022-09-18T19:34:46.184Z,10.08
2022-09-18T19:39:50.236Z,10.08
2022-09-18T19:45:01.422Z,10.07
2022-09-18T19:50:06.046Z,10.07
2022-09-18T19:55:16.016Z,10.06
2022-09-18T20:00:19.460Z,10.00
2022-09-18T20:05:22.133Z,9.95
2022-09-18T20:10:24.864Z,9.94
2022-09-18T20:15:27.749Z,9.95
2022-09-18T20:20:31.179Z,9.95
2022-09-18T20:25:34.202Z,9.97
2022-09-18T20:30:38.953Z,9.97
2022-09-18T20:35:41.732Z,9.97
2022-09-18T20:40:45.392Z,9.98
2022-09-18T20:45:58.146Z,9.98
2022-09-18T20:51:09.292Z,10.00
2022-09-18T20:56:15.062Z,10.06
2022-09-18T21:01:20.721Z,10.08
2022-09-18T21:06:26.181Z,10.07
2022-09-18T21:11:31.611Z,10.10
2022-09-18T21:16:39.318Z,10.12
2022-09-18T21:21:42.326Z,10.13
2022-09-18T21:26:48.009Z,10.15
2022-09-18T21:31:54.226Z,10.15
2022-09-18T21:37:07.803Z,10.15
2022-09-18T21:42:10.917Z,10.14
2022-09-18T21:47:13.654Z,10.10
2022-09-18T21:52:17.381Z,10.06
2022-09-18T21:57:20.164Z,10.01
2022-09-18T22:02:22.923Z,9.97
2022-09-18T22:07:26.326Z,9.93
2022-09-18T22:12:29.044Z,9.88
2022-09-18T22:17:32.114Z,9.82
2022-09-18T22:22:34.925Z,9.80
2022-09-18T22:27:37.808Z,9.80
2022-09-18T22:32:41.523Z,9.77
2022-09-18T22:37:44.374Z,9.78
2022-09-18T22:42:47.071Z,9.78
2022-09-18T22:47:49.874Z,9.73
2022-09-18T22:52:52.771Z,9.71
2022-09-18T22:57:56.223Z,9.73
2022-09-18T23:02:58.897Z,9.72
2022-09-18T23:08:01.974Z,9.71
2022-09-18T23:13:05.081Z,9.72
2022-09-18T23:18:07.778Z,9.72
2022-09-18T23:23:10.548Z,9.74
2022-09-18T23:28:13.494Z,9.78
2022-09-18T23:33:17.044Z,9.83
2022-09-18T23:38:19.738Z,9.88
2022-09-18T23:43:22.488Z,9.93
2022-09-18T23:48:26.583Z,9.99
2022-09-18T23:53:36.238Z,10.01
2022-09-18T23:58:42.122Z,9.97
